West Woodward Airport
KWWR : now visible

Airfield :











YOU CAN JOIN US ON...

 
LOGIN :

Register | Disclaimer

   EN    FR    IT 

 









Legend :    VFR   Marginal VFR   IFR   Intensive IFR   Very Intensive IFR
Visi :
Ceiling :
>= 8 km
>= 3000ft
5 to 8 km
1000 to 3000 ft
1500m to 5 km
500 to 1000 ft
800 to 1500m
200 to 500 ft
< 800m
< 200 ft
Symbols :   Thunderstorms  Fog  Heavy snow  Heavy precipitations  Wind > 20 kt






- Airport Elevation : 2189 ft


KWWR - West Woodward

CURRENT METAR :
  • 222335Z AUTO 18017G24KT 10SM CLR 28/10 A2991 RMK AO2

EXPIRED METARs :
  • 222315Z AUTO 17015KT 10SM CLR 28/10 A2992 RMK AO2
  • 222255Z AUTO 18020G24KT 10SM CLR 28/10 A2992 RMK AO2
  • 222235Z AUTO 19016G23KT 10SM CLR 28/10 A2992 RMK AO2
  • 222215Z AUTO 17020G27KT 10SM CLR 28/10 A2993 RMK AO2
  • 222155Z AUTO 17019G24KT 10SM CLR 28/09 A2993 RMK AO2
  • 222135Z AUTO 17015G23KT 10SM CLR 28/09 A2995 RMK AO2
  • 222115Z AUTO 18017G25KT 10SM CLR 28/09 A2995 RMK AO2
  • 222055Z AUTO 19015G27KT 10SM CLR 28/09 A2997 RMK AO2

TAF KWWR
Valid from the 23 at 00:00 until the 24 at 00:00 UTC


222325Z 2300/2324 18016G24KT P6SM BKN250
FM231100 17015G22KT P6SM SCT010 BKN250 WS020/21045KT
FM231300 18015G22KT P6SM SCT250
FM232100 18019G28KT P6SM SKC
KZKC FIR / North America



MET'MAP, your aeronautical weather chart ! - Copyright ORBIFLY December 2007 - Disclaimer

ORBIFLY MET'MAP TEAM :

Programming & Development : Alexandra Zaïnal
Concept & original design : Baudouin d'Aumeries
Assistance for programming : Marc-Olivier Méhu
Technical & hardware support : Manuel Goepfert

Contact : metmap@orbifly.com




SOURCES & CREDITS :

   NOAA       Earth
Advisory